sensor_id;sensor_type;location;lat;lon;timestamp;temperature;humidity
21895;DHT22;11112;51.270;7.224;2022-11-15T00:01:33;10.20;99.90
21895;DHT22;11112;51.270;7.224;2022-11-15T00:04:04;10.20;99.90
21895;DHT22;11112;51.270;7.224;2022-11-15T00:06:38;10.20;99.90
21895;DHT22;11112;51.270;7.224;2022-11-15T00:09:06;10.30;99.90
21895;DHT22;11112;51.270;7.224;2022-11-15T00:11:35;10.30;99.90
21895;DHT22;11112;51.270;7.224;2022-11-15T00:14:03;10.30;99.90
21895;DHT22;11112;51.270;7.224;2022-11-15T00:16:31;10.30;99.90
21895;DHT22;11112;51.270;7.224;2022-11-15T00:18:58;10.40;99.90
21895;DHT22;11112;51.270;7.224;2022-11-15T00:21:25;10.40;99.90
21895;DHT22;11112;51.270;7.224;2022-11-15T00:23:53;10.40;99.90
21895;DHT22;11112;51.270;7.224;2022-11-15T00:26:21;10.40;99.90
21895;DHT22;11112;51.270;7.224;2022-11-15T00:28:53;10.40;99.90
21895;DHT22;11112;51.270;7.224;2022-11-15T00:31:21;10.50;99.90
21895;DHT22;11112;51.270;7.224;2022-11-15T00:33:49;10.50;99.90
21895;DHT22;11112;51.270;7.224;2022-11-15T00:36:19;10.50;99.90
21895;DHT22;11112;51.270;7.224;2022-11-15T00:38:46;10.50;99.90
21895;DHT22;11112;51.270;7.224;2022-11-15T00:41:14;10.50;99.90
21895;DHT22;11112;51.270;7.224;2022-11-15T00:43:43;10.50;99.90
21895;DHT22;11112;51.270;7.224;2022-11-15T00:46:13;10.50;99.90
21895;DHT22;11112;51.270;7.224;2022-11-15T00:48:40;10.50;99.90
21895;DHT22;11112;51.270;7.224;2022-11-15T00:51:13;10.50;99.90
21895;DHT22;11112;51.270;7.224;2022-11-15T00:53:43;10.60;99.90
21895;DHT22;11112;51.270;7.224;2022-11-15T00:56:11;10.60;99.90
21895;DHT22;11112;51.270;7.224;2022-11-15T00:58:40;10.60;99.90
21895;DHT22;11112;51.270;7.224;2022-11-15T01:01:15;10.60;99.90
21895;DHT22;11112;51.270;7.224;2022-11-15T01:03:42;10.60;99.90
21895;DHT22;11112;51.270;7.224;2022-11-15T01:06:12;10.60;99.90
21895;DHT22;11112;51.270;7.224;2022-11-15T01:08:40;10.60;99.90
21895;DHT22;11112;51.270;7.224;2022-11-15T01:11:12;10.70;99.90
21895;DHT22;11112;51.270;7.224;2022-11-15T01:13:45;10.70;99.90
21895;DHT22;11112;51.270;7.224;2022-11-15T01:16:15;10.70;99.90
21895;DHT22;11112;51.270;7.224;2022-11-15T01:18:45;10.70;99.90
21895;DHT22;11112;51.270;7.224;2022-11-15T01:21:22;10.70;99.90
21895;DHT22;11112;51.270;7.224;2022-11-15T01:23:58;10.70;99.90
21895;DHT22;11112;51.270;7.224;2022-11-15T01:26:25;10.70;99.90
21895;DHT22;11112;51.270;7.224;2022-11-15T01:28:53;10.70;99.90
21895;DHT22;11112;51.270;7.224;2022-11-15T01:31:23;10.80;99.90
21895;DHT22;11112;51.270;7.224;2022-11-15T01:33:52;10.80;99.90
21895;DHT22;11112;51.270;7.224;2022-11-15T01:36:21;10.80;99.90
21895;DHT22;11112;51.270;7.224;2022-11-15T01:38:53;10.80;99.90
21895;DHT22;11112;51.270;7.224;2022-11-15T01:41:23;10.80;99.90
21895;DHT22;11112;51.270;7.224;2022-11-15T01:43:54;10.80;99.90
21895;DHT22;11112;51.270;7.224;2022-11-15T01:46:28;10.80;99.90
21895;DHT22;11112;51.270;7.224;2022-11-15T01:49:01;10.80;99.90
21895;DHT22;11112;51.270;7.224;2022-11-15T01:51:31;10.80;99.90
21895;DHT22;11112;51.270;7.224;2022-11-15T01:54:04;10.80;99.90
21895;DHT22;11112;51.270;7.224;2022-11-15T01:56:40;10.80;99.90
21895;DHT22;11112;51.270;7.224;2022-11-15T01:59:11;10.90;99.90
21895;DHT22;11112;51.270;7.224;2022-11-15T02:01:40;10.90;99.90
21895;DHT22;11112;51.270;7.224;2022-11-15T02:04:11;10.90;99.90
21895;DHT22;11112;51.270;7.224;2022-11-15T02:06:41;10.80;99.90
21895;DHT22;11112;51.270;7.224;2022-11-15T02:09:10;10.90;99.90
21895;DHT22;11112;51.270;7.224;2022-11-15T02:11:41;10.90;99.90
21895;DHT22;11112;51.270;7.224;2022-11-15T02:14:10;10.90;99.90
21895;DHT22;11112;51.270;7.224;2022-11-15T02:16:48;10.90;99.90
21895;DHT22;11112;51.270;7.224;2022-11-15T02:19:34;10.90;99.90
21895;DHT22;11112;51.270;7.224;2022-11-15T02:22:22;10.90;99.90
21895;DHT22;11112;51.270;7.224;2022-11-15T02:25:16;10.90;99.90
21895;DHT22;11112;51.270;7.224;2022-11-15T02:28:34;10.90;99.90
21895;DHT22;11112;51.270;7.224;2022-11-15T02:31:11;10.90;99.90
21895;DHT22;11112;51.270;7.224;2022-11-15T02:33:46;10.90;99.90
21895;DHT22;11112;51.270;7.224;2022-11-15T02:36:26;11.00;99.90
21895;DHT22;11112;51.270;7.224;2022-11-15T02:39:03;10.90;99.90
21895;DHT22;11112;51.270;7.224;2022-11-15T02:41:42;10.90;99.90
21895;DHT22;11112;51.270;7.224;2022-11-15T02:44:17;11.00;99.90
21895;DHT22;11112;51.270;7.224;2022-11-15T02:46:52;11.00;99.90
21895;DHT22;11112;51.270;7.224;2022-11-15T02:49:45;11.00;99.90
21895;DHT22;11112;51.270;7.224;2022-11-15T02:52:15;11.00;99.90
21895;DHT22;11112;51.270;7.224;2022-11-15T02:54:52;11.00;99.90
21895;DHT22;11112;51.270;7.224;2022-11-15T02:57:25;11.00;99.90
21895;DHT22;11112;51.270;7.224;2022-11-15T03:00:10;11.00;99.90
21895;DHT22;11112;51.270;7.224;2022-11-15T03:03:00;11.00;99.90
21895;DHT22;11112;51.270;7.224;2022-11-15T03:05:43;11.00;99.90
21895;DHT22;11112;51.270;7.224;2022-11-15T03:08:15;11.00;99.90
21895;DHT22;11112;51.270;7.224;2022-11-15T03:10:51;11.00;99.90
21895;DHT22;11112;51.270;7.224;2022-11-15T03:13:27;11.00;99.90
21895;DHT22;11112;51.270;7.224;2022-11-15T03:16:03;11.00;99.90
21895;DHT22;11112;51.270;7.224;2022-11-15T03:18:37;11.10;99.90
21895;DHT22;11112;51.270;7.224;2022-11-15T03:21:08;11.10;99.90
21895;DHT22;11112;51.270;7.224;2022-11-15T03:23:37;11.10;99.90
21895;DHT22;11112;51.270;7.224;2022-11-15T03:26:09;11.10;99.90
21895;DHT22;11112;51.270;7.224;2022-11-15T03:28:41;11.10;99.90
21895;DHT22;11112;51.270;7.224;2022-11-15T03:31:10;11.10;99.90
21895;DHT22;11112;51.270;7.224;2022-11-15T03:33:55;11.10;99.90
21895;DHT22;11112;51.270;7.224;2022-11-15T03:36:26;11.10;99.90
21895;DHT22;11112;51.270;7.224;2022-11-15T03:38:56;11.10;99.90
21895;DHT22;11112;51.270;7.224;2022-11-15T03:41:29;11.10;99.90
21895;DHT22;11112;51.270;7.224;2022-11-15T03:44:05;11.10;99.90
21895;DHT22;11112;51.270;7.224;2022-11-15T03:46:42;11.10;99.90
21895;DHT22;11112;51.270;7.224;2022-11-15T03:49:17;11.10;99.90
21895;DHT22;11112;51.270;7.224;2022-11-15T03:51:47;11.10;99.90
21895;DHT22;11112;51.270;7.224;2022-11-15T03:54:15;11.10;99.90
21895;DHT22;11112;51.270;7.224;2022-11-15T03:56:43;11.10;99.90
21895;DHT22;11112;51.270;7.224;2022-11-15T03:59:10;11.10;99.90
21895;DHT22;11112;51.270;7.224;2022-11-15T04:01:37;11.10;99.90
21895;DHT22;11112;51.270;7.224;2022-11-15T04:04:05;11.10;99.90
21895;DHT22;11112;51.270;7.224;2022-11-15T04:06:34;11.10;99.90
21895;DHT22;11112;51.270;7.224;2022-11-15T04:09:01;11.10;99.90
21895;DHT22;11112;51.270;7.224;2022-11-15T04:11:28;11.10;99.90
21895;DHT22;11112;51.270;7.224;2022-11-15T04:13:56;11.10;99.90
21895;DHT22;11112;51.270;7.224;2022-11-15T04:16:25;11.10;99.90
21895;DHT22;11112;51.270;7.224;2022-11-15T04:18:53;11.10;99.90
21895;DHT22;11112;51.270;7.224;2022-11-15T04:21:35;11.20;99.90
21895;DHT22;11112;51.270;7.224;2022-11-15T04:24:22;11.20;99.90
21895;DHT22;11112;51.270;7.224;2022-11-15T04:26:50;11.20;99.90
21895;DHT22;11112;51.270;7.224;2022-11-15T04:29:18;11.20;99.90
21895;DHT22;11112;51.270;7.224;2022-11-15T04:32:05;11.20;99.90
21895;DHT22;11112;51.270;7.224;2022-11-15T04:34:33;11.20;99.90
21895;DHT22;11112;51.270;7.224;2022-11-15T04:37:02;11.20;99.90
21895;DHT22;11112;51.270;7.224;2022-11-15T04:39:38;11.20;99.90
21895;DHT22;11112;51.270;7.224;2022-11-15T04:42:06;11.20;99.90
21895;DHT22;11112;51.270;7.224;2022-11-15T04:44:33;11.20;99.90
21895;DHT22;11112;51.270;7.224;2022-11-15T04:47:02;11.20;99.90
21895;DHT22;11112;51.270;7.224;2022-11-15T04:49:30;11.20;99.90
21895;DHT22;11112;51.270;7.224;2022-11-15T04:51:57;11.20;99.90
21895;DHT22;11112;51.270;7.224;2022-11-15T04:54:29;11.30;99.90
21895;DHT22;11112;51.270;7.224;2022-11-15T04:56:56;11.30;99.90
21895;DHT22;11112;51.270;7.224;2022-11-15T04:59:23;11.30;99.90
21895;DHT22;11112;51.270;7.224;2022-11-15T05:01:50;11.30;99.90
21895;DHT22;11112;51.270;7.224;2022-11-15T05:04:18;11.30;99.90
21895;DHT22;11112;51.270;7.224;2022-11-15T05:06:48;11.30;99.90
21895;DHT22;11112;51.270;7.224;2022-11-15T05:09:16;11.30;99.90
21895;DHT22;11112;51.270;7.224;2022-11-15T05:11:45;11.30;99.90
21895;DHT22;11112;51.270;7.224;2022-11-15T05:14:14;11.30;99.90
21895;DHT22;11112;51.270;7.224;2022-11-15T05:16:43;11.30;99.90
21895;DHT22;11112;51.270;7.224;2022-11-15T05:19:10;11.30;99.90
21895;DHT22;11112;51.270;7.224;2022-11-15T05:21:38;11.30;99.90
21895;DHT22;11112;51.270;7.224;2022-11-15T05:24:06;11.30;99.90
21895;DHT22;11112;51.270;7.224;2022-11-15T05:26:35;11.40;99.90
21895;DHT22;11112;51.270;7.224;2022-11-15T05:29:04;11.40;99.90
21895;DHT22;11112;51.270;7.224;2022-11-15T05:31:32;11.40;99.90
21895;DHT22;11112;51.270;7.224;2022-11-15T05:34:01;11.40;99.90
21895;DHT22;11112;51.270;7.224;2022-11-15T05:36:35;11.40;99.90
21895;DHT22;11112;51.270;7.224;2022-11-15T05:39:06;11.40;99.90
21895;DHT22;11112;51.270;7.224;2022-11-15T05:41:37;11.40;99.90
21895;DHT22;11112;51.270;7.224;2022-11-15T05:44:13;11.40;99.90
21895;DHT22;11112;51.270;7.224;2022-11-15T05:46:42;11.40;99.90
21895;DHT22;11112;51.270;7.224;2022-11-15T05:49:14;11.40;99.90
21895;DHT22;11112;51.270;7.224;2022-11-15T05:51:45;11.40;99.90
21895;DHT22;11112;51.270;7.224;2022-11-15T05:54:13;11.50;99.90
21895;DHT22;11112;51.270;7.224;2022-11-15T05:56:43;11.50;99.90
21895;DHT22;11112;51.270;7.224;2022-11-15T05:59:13;11.40;99.90
21895;DHT22;11112;51.270;7.224;2022-11-15T06:01:41;11.40;99.90
21895;DHT22;11112;51.270;7.224;2022-11-15T06:04:10;11.40;99.90
21895;DHT22;11112;51.270;7.224;2022-11-15T06:06:38;11.50;99.90
21895;DHT22;11112;51.270;7.224;2022-11-15T06:09:05;11.50;99.90
21895;DHT22;11112;51.270;7.224;2022-11-15T06:11:34;11.40;99.90
21895;DHT22;11112;51.270;7.224;2022-11-15T06:14:02;11.50;99.90
21895;DHT22;11112;51.270;7.224;2022-11-15T06:16:31;11.50;99.90
21895;DHT22;11112;51.270;7.224;2022-11-15T06:19:00;11.50;99.90
21895;DHT22;11112;51.270;7.224;2022-11-15T06:21:30;11.50;99.90
21895;DHT22;11112;51.270;7.224;2022-11-15T06:23:58;11.50;99.90
21895;DHT22;11112;51.270;7.224;2022-11-15T06:26:28;11.50;99.90
21895;DHT22;11112;51.270;7.224;2022-11-15T06:28:58;11.60;99.90
21895;DHT22;11112;51.270;7.224;2022-11-15T06:31:26;11.60;99.90
21895;DHT22;11112;51.270;7.224;2022-11-15T06:33:55;11.60;99.90
21895;DHT22;11112;51.270;7.224;2022-11-15T06:36:22;11.60;99.90
21895;DHT22;11112;51.270;7.224;2022-11-15T06:38:49;11.60;99.90
21895;DHT22;11112;51.270;7.224;2022-11-15T06:41:17;11.60;99.90
21895;DHT22;11112;51.270;7.224;2022-11-15T06:43:47;11.60;99.90
21895;DHT22;11112;51.270;7.224;2022-11-15T06:46:15;11.50;99.90
21895;DHT22;11112;51.270;7.224;2022-11-15T06:48:42;11.60;99.90
21895;DHT22;11112;51.270;7.224;2022-11-15T06:51:16;11.50;99.90
21895;DHT22;11112;51.270;7.224;2022-11-15T06:53:43;11.50;99.90
21895;DHT22;11112;51.270;7.224;2022-11-15T06:56:10;11.60;99.90
21895;DHT22;11112;51.270;7.224;2022-11-15T06:58:40;11.60;99.90
21895;DHT22;11112;51.270;7.224;2022-11-15T07:01:10;11.60;99.90
21895;DHT22;11112;51.270;7.224;2022-11-15T07:03:39;11.50;99.90
21895;DHT22;11112;51.270;7.224;2022-11-15T07:06:08;11.50;99.90
21895;DHT22;11112;51.270;7.224;2022-11-15T07:08:37;11.50;99.90
21895;DHT22;11112;51.270;7.224;2022-11-15T07:11:08;11.50;99.90
21895;DHT22;11112;51.270;7.224;2022-11-15T07:13:36;11.50;99.90
21895;DHT22;11112;51.270;7.224;2022-11-15T07:16:07;11.50;99.90
21895;DHT22;11112;51.270;7.224;2022-11-15T07:18:37;11.50;99.90
21895;DHT22;11112;51.270;7.224;2022-11-15T07:21:08;11.50;99.90
21895;DHT22;11112;51.270;7.224;2022-11-15T07:23:38;11.50;99.90
21895;DHT22;11112;51.270;7.224;2022-11-15T07:26:06;11.50;99.90
21895;DHT22;11112;51.270;7.224;2022-11-15T07:28:34;11.50;99.90
21895;DHT22;11112;51.270;7.224;2022-11-15T07:31:02;11.50;99.90
21895;DHT22;11112;51.270;7.224;2022-11-15T07:33:30;11.50;99.90
21895;DHT22;11112;51.270;7.224;2022-11-15T07:35:59;11.50;99.90
21895;DHT22;11112;51.270;7.224;2022-11-15T07:38:28;11.50;99.90
21895;DHT22;11112;51.270;7.224;2022-11-15T07:40:59;11.50;99.90
21895;DHT22;11112;51.270;7.224;2022-11-15T07:43:27;11.50;99.90
21895;DHT22;11112;51.270;7.224;2022-11-15T07:45:57;11.50;99.90
21895;DHT22;11112;51.270;7.224;2022-11-15T07:48:25;11.50;99.90
21895;DHT22;11112;51.270;7.224;2022-11-15T07:50:53;11.50;99.90
21895;DHT22;11112;51.270;7.224;2022-11-15T07:53:21;11.50;99.90
21895;DHT22;11112;51.270;7.224;2022-11-15T07:55:49;11.50;99.90
21895;DHT22;11112;51.270;7.224;2022-11-15T07:58:20;11.50;99.90
21895;DHT22;11112;51.270;7.224;2022-11-15T08:00:54;11.50;99.90
21895;DHT22;11112;51.270;7.224;2022-11-15T08:03:22;11.50;99.90
21895;DHT22;11112;51.270;7.224;2022-11-15T08:05:52;11.50;99.90
21895;DHT22;11112;51.270;7.224;2022-11-15T08:08:20;11.50;99.90
21895;DHT22;11112;51.270;7.224;2022-11-15T08:10:49;11.50;99.90
21895;DHT22;11112;51.270;7.224;2022-11-15T08:13:17;11.50;99.90
21895;DHT22;11112;51.270;7.224;2022-11-15T08:15:51;11.50;99.90
21895;DHT22;11112;51.270;7.224;2022-11-15T08:18:19;11.50;99.90
21895;DHT22;11112;51.270;7.224;2022-11-15T08:20:47;11.50;99.90
21895;DHT22;11112;51.270;7.224;2022-11-15T08:23:15;11.50;99.90
21895;DHT22;11112;51.270;7.224;2022-11-15T08:25:43;11.60;99.90
21895;DHT22;11112;51.270;7.224;2022-11-15T08:28:11;11.60;99.90
21895;DHT22;11112;51.270;7.224;2022-11-15T08:30:42;11.60;99.90
21895;DHT22;11112;51.270;7.224;2022-11-15T08:33:12;11.60;99.90
21895;DHT22;11112;51.270;7.224;2022-11-15T08:35:42;11.60;99.90
21895;DHT22;11112;51.270;7.224;2022-11-15T08:38:10;11.60;99.90
21895;DHT22;11112;51.270;7.224;2022-11-15T08:40:38;11.60;99.90
21895;DHT22;11112;51.270;7.224;2022-11-15T08:43:06;11.60;99.90
21895;DHT22;11112;51.270;7.224;2022-11-15T08:45:34;11.60;99.90
21895;DHT22;11112;51.270;7.224;2022-11-15T08:48:05;11.60;99.90
21895;DHT22;11112;51.270;7.224;2022-11-15T08:50:33;11.70;99.90
21895;DHT22;11112;51.270;7.224;2022-11-15T08:53:05;11.70;99.90
21895;DHT22;11112;51.270;7.224;2022-11-15T08:55:32;11.70;99.90
21895;DHT22;11112;51.270;7.224;2022-11-15T08:57:59;11.70;99.90
21895;DHT22;11112;51.270;7.224;2022-11-15T09:00:26;11.70;99.90
21895;DHT22;11112;51.270;7.224;2022-11-15T09:02:53;11.70;99.90
21895;DHT22;11112;51.270;7.224;2022-11-15T09:05:22;11.70;99.90
21895;DHT22;11112;51.270;7.224;2022-11-15T09:07:52;11.70;99.90
21895;DHT22;11112;51.270;7.224;2022-11-15T09:10:20;11.70;99.90
21895;DHT22;11112;51.270;7.224;2022-11-15T09:12:47;11.70;99.90
21895;DHT22;11112;51.270;7.224;2022-11-15T09:15:15;11.80;99.90
21895;DHT22;11112;51.270;7.224;2022-11-15T09:17:42;11.80;99.90
21895;DHT22;11112;51.270;7.224;2022-11-15T09:20:10;11.80;99.90
21895;DHT22;11112;51.270;7.224;2022-11-15T09:22:39;11.80;99.90
21895;DHT22;11112;51.270;7.224;2022-11-15T09:25:08;11.80;99.90
21895;DHT22;11112;51.270;7.224;2022-11-15T09:27:39;11.80;99.90
21895;DHT22;11112;51.270;7.224;2022-11-15T09:30:07;11.80;99.90
21895;DHT22;11112;51.270;7.224;2022-11-15T09:32:36;11.80;99.90
21895;DHT22;11112;51.270;7.224;2022-11-15T09:35:07;11.90;99.90
21895;DHT22;11112;51.270;7.224;2022-11-15T09:37:36;11.80;99.90
21895;DHT22;11112;51.270;7.224;2022-11-15T09:40:14;11.90;99.90
21895;DHT22;11112;51.270;7.224;2022-11-15T09:43:03;11.90;99.90
21895;DHT22;11112;51.270;7.224;2022-11-15T09:45:43;11.90;99.90
21895;DHT22;11112;51.270;7.224;2022-11-15T09:48:37;11.90;99.90
21895;DHT22;11112;51.270;7.224;2022-11-15T09:51:28;11.90;99.90
21895;DHT22;11112;51.270;7.224;2022-11-15T09:54:03;11.90;99.90
21895;DHT22;11112;51.270;7.224;2022-11-15T09:56:36;11.90;99.90
21895;DHT22;11112;51.270;7.224;2022-11-15T09:59:23;11.90;99.90
21895;DHT22;11112;51.270;7.224;2022-11-15T10:02:17;11.90;99.80
21895;DHT22;11112;51.270;7.224;2022-11-15T10:04:58;11.90;99.90
21895;DHT22;11112;51.270;7.224;2022-11-15T10:07:34;11.90;99.90
21895;DHT22;11112;51.270;7.224;2022-11-15T10:10:13;11.90;99.60
21895;DHT22;11112;51.270;7.224;2022-11-15T10:12:47;11.90;99.10
21895;DHT22;11112;51.270;7.224;2022-11-15T10:15:17;11.90;99.30
21895;DHT22;11112;51.270;7.224;2022-11-15T10:18:13;11.90;99.40
21895;DHT22;11112;51.270;7.224;2022-11-15T10:20:47;11.90;99.20
21895;DHT22;11112;51.270;7.224;2022-11-15T10:23:18;12.00;98.80
21895;DHT22;11112;51.270;7.224;2022-11-15T10:25:51;11.90;98.50
21895;DHT22;11112;51.270;7.224;2022-11-15T10:28:26;12.00;98.20
21895;DHT22;11112;51.270;7.224;2022-11-15T10:30:57;12.00;98.20
21895;DHT22;11112;51.270;7.224;2022-11-15T10:33:31;12.00;98.40
21895;DHT22;11112;51.270;7.224;2022-11-15T10:36:16;12.00;98.40
21895;DHT22;11112;51.270;7.224;2022-11-15T10:38:58;12.10;98.50
21895;DHT22;11112;51.270;7.224;2022-11-15T10:41:34;12.10;97.90
21895;DHT22;11112;51.270;7.224;2022-11-15T10:44:25;12.10;98.20
21895;DHT22;11112;51.270;7.224;2022-11-15T10:50:06;12.10;97.10
21895;DHT22;11112;51.270;7.224;2022-11-15T10:52:52;12.20;97.30
21895;DHT22;11112;51.270;7.224;2022-11-15T10:55:24;12.20;97.50
21895;DHT22;11112;51.270;7.224;2022-11-15T10:57:55;12.10;97.40
21895;DHT22;11112;51.270;7.224;2022-11-15T11:00:35;12.20;97.50
21895;DHT22;11112;51.270;7.224;2022-11-15T11:03:20;12.20;97.40
21895;DHT22;11112;51.270;7.224;2022-11-15T11:06:06;12.20;98.00
21895;DHT22;11112;51.270;7.224;2022-11-15T11:08:36;12.30;97.30
21895;DHT22;11112;51.270;7.224;2022-11-15T11:11:05;12.30;97.90
21895;DHT22;11112;51.270;7.224;2022-11-15T11:13:36;12.30;97.70
21895;DHT22;11112;51.270;7.224;2022-11-15T11:19:18;12.30;97.10
21895;DHT22;11112;51.270;7.224;2022-11-15T11:22:12;12.30;97.00
21895;DHT22;11112;51.270;7.224;2022-11-15T11:24:58;12.30;95.80
21895;DHT22;11112;51.270;7.224;2022-11-15T11:27:43;12.40;95.90
21895;DHT22;11112;51.270;7.224;2022-11-15T11:30:29;12.30;95.00
21895;DHT22;11112;51.270;7.224;2022-11-15T11:33:13;12.40;95.20
21895;DHT22;11112;51.270;7.224;2022-11-15T11:35:52;12.40;95.30
21895;DHT22;11112;51.270;7.224;2022-11-15T11:41:46;12.40;94.60
21895;DHT22;11112;51.270;7.224;2022-11-15T11:44:34;12.40;94.20
21895;DHT22;11112;51.270;7.224;2022-11-15T11:47:10;12.40;93.70
21895;DHT22;11112;51.270;7.224;2022-11-15T11:49:49;12.40;94.10
21895;DHT22;11112;51.270;7.224;2022-11-15T11:52:23;12.40;93.90
21895;DHT22;11112;51.270;7.224;2022-11-15T11:55:01;12.40;94.10
21895;DHT22;11112;51.270;7.224;2022-11-15T11:57:37;12.40;93.60
21895;DHT22;11112;51.270;7.224;2022-11-15T12:00:21;12.40;94.10
21895;DHT22;11112;51.270;7.224;2022-11-15T12:03:07;12.40;94.00
21895;DHT22;11112;51.270;7.224;2022-11-15T12:05:45;12.40;94.10
21895;DHT22;11112;51.270;7.224;2022-11-15T12:08:26;12.40;94.10
21895;DHT22;11112;51.270;7.224;2022-11-15T12:11:07;12.40;93.70
21895;DHT22;11112;51.270;7.224;2022-11-15T12:13:38;12.40;93.80
21895;DHT22;11112;51.270;7.224;2022-11-15T12:16:12;12.40;93.70
21895;DHT22;11112;51.270;7.224;2022-11-15T12:18:47;12.40;93.70
21895;DHT22;11112;51.270;7.224;2022-11-15T12:21:32;12.40;93.20
21895;DHT22;11112;51.270;7.224;2022-11-15T12:24:04;12.40;93.00
21895;DHT22;11112;51.270;7.224;2022-11-15T12:26:41;12.40;93.20
21895;DHT22;11112;51.270;7.224;2022-11-15T12:29:16;12.30;93.10
21895;DHT22;11112;51.270;7.224;2022-11-15T12:31:50;12.40;93.20
21895;DHT22;11112;51.270;7.224;2022-11-15T12:34:39;12.40;93.20
21895;DHT22;11112;51.270;7.224;2022-11-15T12:37:44;12.40;93.10
21895;DHT22;11112;51.270;7.224;2022-11-15T12:40:34;12.40;92.90
21895;DHT22;11112;51.270;7.224;2022-11-15T12:43:36;12.40;93.10
21895;DHT22;11112;51.270;7.224;2022-11-15T12:46:11;12.40;93.20
21895;DHT22;11112;51.270;7.224;2022-11-15T12:48:58;12.40;93.30
21895;DHT22;11112;51.270;7.224;2022-11-15T12:58:26;12.40;93.60
21895;DHT22;11112;51.270;7.224;2022-11-15T13:00:56;12.40;93.60
21895;DHT22;11112;51.270;7.224;2022-11-15T13:03:26;12.30;93.70
21895;DHT22;11112;51.270;7.224;2022-11-15T13:06:10;12.40;93.80
21895;DHT22;11112;51.270;7.224;2022-11-15T13:13:04;12.30;93.90
21895;DHT22;11112;51.270;7.224;2022-11-15T13:15:56;12.40;94.10
21895;DHT22;11112;51.270;7.224;2022-11-15T13:18:40;12.30;94.10
21895;DHT22;11112;51.270;7.224;2022-11-15T13:21:23;12.40;94.10
21895;DHT22;11112;51.270;7.224;2022-11-15T13:24:14;12.30;94.20
21895;DHT22;11112;51.270;7.224;2022-11-15T13:26:44;12.30;94.40
21895;DHT22;11112;51.270;7.224;2022-11-15T13:29:22;12.40;94.50
21895;DHT22;11112;51.270;7.224;2022-11-15T13:31:50;12.40;94.70
21895;DHT22;11112;51.270;7.224;2022-11-15T13:34:28;12.40;94.80
21895;DHT22;11112;51.270;7.224;2022-11-15T13:36:58;12.40;95.10
21895;DHT22;11112;51.270;7.224;2022-11-15T13:39:29;12.40;95.30
21895;DHT22;11112;51.270;7.224;2022-11-15T13:41:59;12.40;95.40
21895;DHT22;11112;51.270;7.224;2022-11-15T13:44:30;12.30;95.60
21895;DHT22;11112;51.270;7.224;2022-11-15T13:47:03;12.30;95.80
21895;DHT22;11112;51.270;7.224;2022-11-15T13:49:34;12.30;95.90
21895;DHT22;11112;51.270;7.224;2022-11-15T13:52:06;12.30;96.10
21895;DHT22;11112;51.270;7.224;2022-11-15T13:54:36;12.30;96.10
21895;DHT22;11112;51.270;7.224;2022-11-15T13:57:11;12.30;96.30
21895;DHT22;11112;51.270;7.224;2022-11-15T13:59:51;12.30;96.30
21895;DHT22;11112;51.270;7.224;2022-11-15T14:02:26;12.30;96.40
21895;DHT22;11112;51.270;7.224;2022-11-15T14:04:56;12.40;96.50
21895;DHT22;11112;51.270;7.224;2022-11-15T14:07:27;12.40;96.50
21895;DHT22;11112;51.270;7.224;2022-11-15T14:09:56;12.40;96.60
21895;DHT22;11112;51.270;7.224;2022-11-15T14:12:29;12.30;96.60
21895;DHT22;11112;51.270;7.224;2022-11-15T14:17:49;12.40;96.60
21895;DHT22;11112;51.270;7.224;2022-11-15T14:20:30;12.30;96.70
21895;DHT22;11112;51.270;7.224;2022-11-15T14:23:00;12.40;96.70
21895;DHT22;11112;51.270;7.224;2022-11-15T14:25:30;12.40;96.70
21895;DHT22;11112;51.270;7.224;2022-11-15T14:31:01;12.40;96.60
21895;DHT22;11112;51.270;7.224;2022-11-15T14:33:30;12.40;96.70
21895;DHT22;11112;51.270;7.224;2022-11-15T14:36:04;12.40;96.90
21895;DHT22;11112;51.270;7.224;2022-11-15T14:38:33;12.40;96.70
21895;DHT22;11112;51.270;7.224;2022-11-15T14:41:01;12.40;96.70
21895;DHT22;11112;51.270;7.224;2022-11-15T14:43:29;12.40;97.10
21895;DHT22;11112;51.270;7.224;2022-11-15T14:45:57;12.40;96.80
21895;DHT22;11112;51.270;7.224;2022-11-15T14:48:27;12.40;96.80
21895;DHT22;11112;51.270;7.224;2022-11-15T14:50:56;12.40;96.80
21895;DHT22;11112;51.270;7.224;2022-11-15T14:53:24;12.40;97.00
21895;DHT22;11112;51.270;7.224;2022-11-15T14:55:53;12.50;96.90
21895;DHT22;11112;51.270;7.224;2022-11-15T14:58:22;12.40;96.90
21895;DHT22;11112;51.270;7.224;2022-11-15T15:00:50;12.40;97.00
21895;DHT22;11112;51.270;7.224;2022-11-15T15:03:19;12.40;96.90
21895;DHT22;11112;51.270;7.224;2022-11-15T15:05:49;12.40;96.90
21895;DHT22;11112;51.270;7.224;2022-11-15T15:08:18;12.40;97.00
21895;DHT22;11112;51.270;7.224;2022-11-15T15:10:46;12.40;97.00
21895;DHT22;11112;51.270;7.224;2022-11-15T15:13:17;12.40;97.00
21895;DHT22;11112;51.270;7.224;2022-11-15T15:15:47;12.40;97.00
21895;DHT22;11112;51.270;7.224;2022-11-15T15:18:15;12.40;97.00
21895;DHT22;11112;51.270;7.224;2022-11-15T15:20:45;12.40;97.00
21895;DHT22;11112;51.270;7.224;2022-11-15T15:23:18;12.40;97.10
21895;DHT22;11112;51.270;7.224;2022-11-15T15:25:48;12.40;97.10
21895;DHT22;11112;51.270;7.224;2022-11-15T15:28:16;12.40;97.10
21895;DHT22;11112;51.270;7.224;2022-11-15T15:30:44;12.40;97.50
21895;DHT22;11112;51.270;7.224;2022-11-15T15:33:12;12.40;97.20
21895;DHT22;11112;51.270;7.224;2022-11-15T15:35:39;12.40;97.20
21895;DHT22;11112;51.270;7.224;2022-11-15T15:38:09;12.40;97.20
21895;DHT22;11112;51.270;7.224;2022-11-15T15:40:37;12.40;97.30
21895;DHT22;11112;51.270;7.224;2022-11-15T15:43:05;12.40;97.40
21895;DHT22;11112;51.270;7.224;2022-11-15T15:45:36;12.40;97.40
21895;DHT22;11112;51.270;7.224;2022-11-15T15:48:04;12.40;97.50
21895;DHT22;11112;51.270;7.224;2022-11-15T15:50:33;12.40;97.60
21895;DHT22;11112;51.270;7.224;2022-11-15T15:53:03;12.40;97.60
21895;DHT22;11112;51.270;7.224;2022-11-15T15:55:32;12.40;97.60
21895;DHT22;11112;51.270;7.224;2022-11-15T15:58:00;12.30;97.70
21895;DHT22;11112;51.270;7.224;2022-11-15T16:00:27;12.30;97.80
21895;DHT22;11112;51.270;7.224;2022-11-15T16:02:55;12.40;97.90
21895;DHT22;11112;51.270;7.224;2022-11-15T16:05:22;12.40;98.00
21895;DHT22;11112;51.270;7.224;2022-11-15T16:07:50;12.40;98.10
21895;DHT22;11112;51.270;7.224;2022-11-15T16:10:22;12.40;98.10
21895;DHT22;11112;51.270;7.224;2022-11-15T16:12:55;12.40;98.20
21895;DHT22;11112;51.270;7.224;2022-11-15T16:15:25;12.40;98.20
21895;DHT22;11112;51.270;7.224;2022-11-15T16:17:55;12.40;98.20
21895;DHT22;11112;51.270;7.224;2022-11-15T16:20:31;12.40;98.30
21895;DHT22;11112;51.270;7.224;2022-11-15T16:23:02;12.40;98.30
21895;DHT22;11112;51.270;7.224;2022-11-15T16:25:39;12.40;98.30
21895;DHT22;11112;51.270;7.224;2022-11-15T16:28:20;12.40;98.30
21895;DHT22;11112;51.270;7.224;2022-11-15T16:30:59;12.40;98.30